Vliegveld de Kooy, Nederland

9:42 AM CEST op 27 juli 2016 (GMT +0200)
De Kooy Navy | | Change Station

Hoogte 3 ft 52.93 °N, 4.78 °E | Updated 2 minutes ago

Overcast
Geheel bewolkt
66 °F
Voelt als 66 °F
N
16
Wind Variabel Wind van ZZW

Vandaag
Hoog -- | Laag -- °F
--% Kans op neerslag
Gisteren
Hoog -- | Laag -- °F
Precip. -- inches
Druk 29.98 inches
Zicht 6.2 mijlen
Wolken Gering 1500 ft
Geheel bewolkt 17000 ft
Dauwpunt 59 °F
Vochtigheid 78%
Neerslag 0.00 inches
Dikte sneeuw Niet beschikbaar.
5:51 AM 9:42 PM
Laatste kwartier, 46% visible
SPECI EHKD 270740Z AUTO 21014KT 180V250 9999 FEW015 OVC170 19/15 Q1015 BLU 20006KT 9999 FEW009 SCT013 BKN170
Druk 29.98 inches
Zicht 6.2 mijlen
Wolken Gering 1500 ft
Geheel bewolkt 17000 ft
Dauwpunt 59 °F
Vochtigheid 78%
Neerslag 0.00 inches
Dikte sneeuw Niet beschikbaar.
5:51 AM 9:42 PM
Laatste kwartier, 46% visible
SPECI EHKD 270740Z AUTO 21014KT 180V250 9999 FEW015 OVC170 19/15 Q1015 BLU 20006KT 9999 FEW009 SCT013 BKN170

10-Day Weather Forecast

×

Almanac

Astronomie

Jul. 27, 2016 Opkomst Ondergang
Werkelijke tijd
Burgerlijke schemering
Nautische schemering
Astronomische schemering
Maan
Golflengte van het zichtbare licht
Daglengte
Tomorrow will be .
, % of the Moon is Illuminated

Extremen vandaag

Country Highs Country Lows

Community

WunderPhotos

Upload Photos

1,927,818 foto’s ge-upload!

WunderBlog® & News

Nearby

Luchtkwaliteit

  Luchtkwaliteit LK-index Verontreinigende stof
Not available.

Dikte sneeuw

Station Depth Geometrische hoogte

Aardbevingen

Stad Distance Mag. Time & Date
Minimum magnitude displayed is 2.5.

Watertemperatuur langs de kust

Plaats Temperatuur

Stations

Nabije weerstations

Locatie station Temp. Gevoelstemperatuur Dauwpunt Vochtigheid Wind Precip. Hoogte Geactualiseerd Type